Latest Weather Observations for Moruya Airport

IDN60801

Issued at 10:35 am EST Wednesday 1 October 2014 (issued every 30 minutes, with the page automatically refreshed every 10 minutes)

About weather observations | Map of weather stations | Latest weather observations for NSW | Other Formats
Station Details ID: 069148 Name: MORUYA AIRPORT AWS Lat: -35.90 Lon: 150.14 Height: 4.0 m
Data from the previous 72 hours. | See also: Recent months for locations in New South Wales
Date/Time
EST
Temp
°C
App
Temp
°C
Dew
Point
Rel
Hum
%
Delta-T
°C
Wind Press
QNH
hPa
Press
MSL
hPa
Rain
since 9 am
mm
Dir
 
Spd
km/h
Gust
km/h
Spd
kts
Gust
kts
01/10:30am 17.8 11.5 -0.9 28 7.9 WSW 22 39 12 21 1018.3 1018.3 0.0
01/10:00am 16.9 8.5 -2.2 27 7.8 SSW 32 41 17 22 1018.1 1018.1 0.0
01/09:36am 16.3 8.6 -3.2 26 7.8 SW 28 46 15 25 1017.8 1017.8 0.0
01/09:30am 16.5 10.1 -1.6 29 7.5 SSW 22 35 12 19 1017.8 1017.8 0.0
01/09:00am 16.1 10.2 -1.9 29 7.4 SW 19 28 10 15 1017.4 1017.4 0.0
01/08:30am 15.2 9.1 -2.2 30 7.0 SW 20 35 11 19 1017.2 1017.2 0.0
01/08:00am 14.7 7.9 -2.2 31 6.8 SW 24 39 13 21 1016.9 1016.9 0.0
01/07:30am 14.3 8.4 -2.6 31 6.7 WSW 19 37 10 20 1016.5 1016.5 0.0
01/07:00am 13.7 9.6 -2.7 32 6.4 WSW 9 15 5 8 1015.8 1015.8 0.0
01/06:30am 12.9 8.1 -2.6 34 6.0 W 13 19 7 10 1015.1 1015.1 0.0
01/06:00am 12.8 6.7 -3.9 31 6.3 WSW 19 28 10 15 1014.6 1014.6 0.0
01/05:30am 12.7 7.0 -4.0 31 6.3 WSW 17 26 9 14 1014.2 1014.2 0.0
01/05:00am 12.8 7.8 -3.9 31 6.3 WSW 13 20 7 11 1013.2 1013.2 0.0
01/04:30am 13.4 8.5 -3.4 31 6.5 W 13 26 7 14 1012.2 1012.2 0.0
01/04:00am 13.8 9.0 -2.6 32 6.5 W 13 20 7 11 1011.7 1011.7 0.0
01/03:30am 14.4 9.2 -2.5 31 6.7 W 15 22 8 12 1011.0 1011.0 0.0
01/03:00am 14.8 10.0 -0.1 36 6.3 W 15 26 8 14 1010.6 1010.6 0.0
01/02:30am 12.2 10.3 9.2 82 1.5 WNW 9 13 5 7 1010.1 1010.1 0.0
01/02:00am 12.9 11.5 9.7 81 1.6 NW 7 11 4 6 1009.6 1009.6 0.0
01/01:30am 13.3 11.6 9.9 80 1.7 NW 9 15 5 8 1008.9 1008.9 0.0
01/01:00am 13.8 12.3 10.4 80 1.8 NNW 9 15 5 8 1008.9 1008.9 0.0
01/12:30am 14.3 10.7 9.9 75 2.3 SSE 19 35 10 19 1008.9 1008.9 0.0
01/12:00am 14.4 9.9 10.2 76 2.2 SSE 24 39 13 21 1008.3 1008.2 0.0
 
Date/Time
EST
Temp
°C
App
Temp
°C
Dew
Point
Rel
Hum
%
Delta-T
°C
Wind Press
QNH
hPa
Press
MSL
hPa
Rain
since 9 am
mm
Dir
 
Spd
km/h
Gust
km/h
Spd
kts
Gust
kts
30/11:30pm 14.8 9.7 11.8 82 1.6 SE 30 43 16 23 1007.7 1007.6 0.0
30/11:04pm 16.0 10.5 12.0 77 2.2 SSE 32 54 17 29 1006.7 1006.6 0.0
30/11:00pm 18.0 13.2 7.4 50 5.4 SSE 22 41 12 22 1006.5 1006.4 0.0
30/10:30pm 20.9 18.0 2.7 30 8.5 N 7 11 4 6 1005.1 1005.0 0.0
30/10:00pm 22.8 20.0 2.3 26 9.7 NW 6 19 3 10 1005.0 1004.9 0.0
30/09:30pm 23.5 19.8 2.4 25 10.0 WNW 11 20 6 11 1004.9 1004.8 0.0
30/09:00pm 24.3 20.2 2.5 24 10.5 WNW 13 30 7 16 1004.8 1004.7 0.0
30/08:30pm 23.8 20.8 2.0 24 10.3 NW 7 19 4 10 1004.9 1004.8 0.0
30/08:00pm 24.4 20.3 2.5 24 10.5 NNW 13 24 7 13 1004.9 1004.8 0.0
30/07:30pm 24.9 20.4 2.4 23 10.8 WNW 15 28 8 15 1005.0 1004.9 0.0
30/07:00pm 25.3 20.5 2.7 23 11.0 WNW 17 28 9 15 1004.8 1004.7 0.0
30/06:30pm 25.9 20.5 2.6 22 11.3 WNW 20 37 11 20 1004.5 1004.4 0.0
30/06:00pm 26.3 21.1 3.5 23 11.3 WNW 20 46 11 25 1003.9 1003.8 0.0
30/05:53pm 26.2 21.1 4.1 24 11.1 WNW 20 35 11 19 1004.0 1003.9 0.0
30/05:43pm 26.4 20.9 4.2 24 11.1 NW 22 46 12 25 1004.0 1003.9 0.0
30/05:30pm 26.7 22.3 4.5 24 11.2 NW 17 35 9 19 1003.8 1003.7 0.0
30/05:00pm 27.5 22.6 5.1 24 11.5 NW 20 41 11 22 1003.8 1003.7 0.0
30/04:30pm 28.0 21.6 5.0 23 11.8 NW 28 54 15 29 1003.5 1003.4 0.0
30/04:28pm 28.1 21.7 5.0 23 11.9 NW 28 54 15 29 1003.5 1003.4 0.0
30/04:00pm 28.7 23.5 5.5 23 12.1 NNW 22 37 12 20 1003.4 1003.3 0.0
30/03:30pm 29.3 22.8 4.7 21 12.7 NNW 28 50 15 27 1003.4 1003.3 0.0
30/03:26pm 29.2 22.7 4.6 21 12.6 NNW 28 50 15 27 1003.4 1003.3 0.0
30/03:00pm 30.1 24.7 4.7 20 13.2 NNW 22 44 12 24 1003.9 1003.8 0.0
30/02:30pm 30.3 24.1 4.1 19 13.4 NNW 26 46 14 25 1004.1 1004.0 0.0
30/02:00pm 31.1 25.5 5.5 20 13.6 NW 24 37 13 20 1004.3 1004.2 0.0
30/01:30pm 30.9 25.7 5.3 20 13.5 NW 22 39 12 21 1004.5 1004.4 0.0
30/01:00pm 30.9 25.4 6.0 21 13.3 NW 24 41 13 22 1004.5 1004.4 0.0
30/12:30pm 30.3 24.9 6.2 22 12.8 NNW 24 35 13 19 1005.1 1005.0 0.0
30/12:00pm 29.5 24.4 6.2 23 12.4 NNW 22 39 12 21 1005.7 1005.6 0.0
30/11:30am 26.5 24.7 11.0 38 8.8 E 11 20 6 11 1006.6 1006.5 0.0
30/11:00am 24.2 21.2 12.5 48 6.7 NE 20 28 11 15 1007.6 1007.5 0.0
30/10:30am 26.0 23.6 10.2 37 8.8 N 13 20 7 11 1008.4 1008.3 0.0
30/10:00am 24.6 22.3 10.5 41 7.8 N 13 20 7 11 1008.9 1008.9 0.0
30/09:30am 23.8 21.9 11.8 47 6.8 N 13 20 7 11 1009.4 1009.4 0.0
30/09:00am 22.1 20.3 12.1 53 5.6 N 13 20 7 11 1009.9 1009.9 0.0
30/08:30am 19.4 18.3 13.1 67 3.6 NNW 11 17 6 9 1010.2 1010.2 0.0
30/08:00am 15.7 17.0 14.2 91 0.9 CALM 0 6 0 3 1010.5 1010.5 0.0
30/07:30am 12.9 13.4 12.9 100 0.0 SW 2 9 1 5 1010.7 1010.7 0.0
30/07:00am 11.0 11.3 11.0 100 0.0 CALM 0 6 0 3 1010.8 1010.8 0.0
30/06:30am 9.0 8.8 9.0 100 0.0 CALM 0 6 0 3 1011.1 1011.1 0.0
30/06:20am 8.2 7.8 8.2 100 0.0 CALM 0 0 0 0 1011.1 1011.1 0.0
30/06:00am 7.0 6.3 7.0 100 0.0 CALM 0 0 0 0 1011.0 1011.0 0.0
30/05:57am 7.0 6.3 7.0 100 0.0 CALM 0 0 0 0 1011.0 1011.0 0.0
30/05:30am 7.7 6.8 7.7 100 0.0 W 2 7 1 4 1010.8 1010.8 0.0
30/05:00am 7.2 6.6 7.2 100 0.0 CALM 0 4 0 2 1010.9 1010.9 0.0
30/04:30am 7.7 7.2 7.7 100 0.0 CALM 0 0 0 0 1010.9 1010.9 0.0
30/04:00am 7.5 6.9 7.5 100 0.0 CALM 0 0 0 0 1011.0 1011.0 0.0
30/03:30am 7.3 6.7 7.3 100 0.0 CALM 0 0 0 0 1011.3 1011.3 0.0
30/03:00am 7.7 7.2 7.7 100 0.0 CALM 0 7 0 4 1011.5 1011.5 0.0
30/02:30am 7.4 5.7 7.4 100 0.0 NW 6 7 3 4 1011.8 1011.8 0.0
30/02:00am 7.7 6.8 7.7 100 0.0 WNW 2 6 1 3 1012.1 1012.1 0.0
30/01:30am 8.0 6.8 8.0 100 0.0 W 4 6 2 3 1012.4 1012.4 0.0
30/01:16am 7.9 7.4 7.9 100 0.0 CALM 0 0 0 0 1012.6 1012.6 0.0
30/01:01am 7.9 7.4 7.9 100 0.0 CALM 0 0 0 0 1012.7 1012.7 0.0
30/01:00am 8.0 7.5 8.0 100 0.0 CALM 0 0 0 0 1012.8 1012.8 0.0
30/12:30am 8.4 8.0 8.4 100 0.0 CALM 0 0 0 0 1013.1 1013.1 0.0
30/12:00am 8.3 7.9 8.3 100 0.0 CALM 0 0 0 0 1013.3 1013.3 0.0
 
Date/Time
EST
Temp
°C
App
Temp
°C
Dew
Point
Rel
Hum
%
Delta-T
°C
Wind Press
QNH
hPa
Press
MSL
hPa
Rain
since 9 am
mm
Dir
 
Spd
km/h
Gust
km/h
Spd
kts
Gust
kts
29/11:41pm 8.8 8.5 8.8 100 0.0 CALM 0 0 0 0 1013.6 1013.6 0.0
29/11:30pm 8.8 8.5 8.8 100 0.0 CALM 0 0 0 0 1013.8 1013.8 0.0
29/11:00pm 8.9 8.7 8.9 100 0.0 CALM 0 0 0 0 1014.1 1014.1 0.0
29/10:30pm 9.3 9.2 9.3 100 0.0 CALM 0 0 0 0 1014.5 1014.5 0.0
29/10:24pm 9.0 8.8 9.0 100 0.0 CALM 0 0 0 0 1014.6 1014.6 0.0
29/10:06pm 9.5 9.4 9.5 100 0.0 CALM 0 0 0 0 1014.7 1014.7 0.0
29/10:00pm 9.6 9.5 9.6 100 0.0 CALM 0 0 0 0 1014.7 1014.7 0.0
29/09:30pm 10.2 10.3 10.2 100 0.0 CALM 0 0 0 0 1015.0 1015.0 0.0
29/09:00pm 10.5 10.3 10.5 100 0.0 W 2 7 1 4 1015.1 1015.1 0.0
29/08:30pm 11.4 10.7 11.4 100 0.0 W 6 7 3 4 1015.5 1015.5 0.0
29/08:00pm 11.3 11.7 11.1 99 0.1 CALM 0 0 0 0 1015.5 1015.5 0.0
29/07:30pm 12.0 12.4 11.4 96 0.3 CALM 0 4 0 2 1015.5 1015.5 0.0
29/07:00pm 12.9 12.4 12.1 95 0.4 NW 6 7 3 4 1015.3 1015.3 0.0
29/06:30pm 14.1 14.5 12.5 90 0.9 NNW 2 6 1 3 1015.2 1015.2 0.0
29/06:00pm 15.4 15.6 11.8 79 1.9 ENE 2 6 1 3 1015.0 1015.0 0.0
29/05:30pm 17.2 16.6 12.3 73 2.7 E 7 9 4 5 1014.8 1014.8 0.0
29/05:00pm 17.8 16.9 12.5 71 2.9 E 9 9 5 5 1014.6 1014.6 0.0
29/04:30pm 18.1 16.8 12.5 70 3.1 ESE 11 13 6 7 1014.3 1014.3 0.0
29/04:00pm 18.7 17.0 12.5 67 3.5 SE 13 17 7 9 1014.2 1014.2 0.0
29/03:30pm 18.8 16.9 11.9 64 3.8 SE 13 19 7 10 1013.8 1013.8 0.0
29/03:00pm 19.3 17.2 12.3 64 3.9 SSE 15 19 8 10 1013.6 1013.6 0.0
29/02:30pm 19.2 16.4 11.3 60 4.3 SE 17 24 9 13 1013.2 1013.2 0.0
29/02:00pm 19.9 16.8 11.7 59 4.5 SE 19 26 10 14 1013.0 1013.0 0.0
29/01:30pm 20.3 17.7 12.0 59 4.6 SSE 17 20 9 11 1012.7 1012.7 0.0
29/01:00pm 19.4 16.0 10.7 57 4.7 SE 19 24 10 13 1012.5 1012.5 0.0
29/12:30pm 20.0 17.4 12.0 60 4.5 SE 17 24 9 13 1012.6 1012.6 0.0
29/12:00pm 19.9 17.6 13.1 65 3.9 SE 17 24 9 13 1012.8 1012.8 0.0
29/11:30am 19.7 17.0 13.4 67 3.6 SSE 20 28 11 15 1013.0 1013.0 0.0
29/11:00am 20.0 17.4 14.8 72 3.0 SSE 22 35 12 19 1012.9 1012.9 0.0
29/10:30am 20.0 15.5 13.7 67 3.6 S 30 41 16 22 1012.6 1012.6 0.0
29/10:00am 23.6 21.2 13.8 54 5.7 SE 19 24 10 13 1011.9 1011.9 0.0
29/09:30am 25.8 23.0 6.9 30 9.9 N 11 17 6 9 1011.4 1011.4 0.0
29/09:00am 25.2 22.1 7.3 32 9.4 N 13 17 7 9 1011.5 1011.5 0.0
29/08:30am 23.9 21.2 7.5 35 8.6 N 11 17 6 9 1011.5 1011.5 0.0
29/08:00am 23.0 20.0 7.5 37 8.1 N 13 20 7 11 1011.1 1011.1 0.0
29/07:30am 22.1 19.3 7.1 38 7.7 N 11 20 6 11 1010.9 1010.9 0.0
29/07:00am 21.4 17.0 6.5 38 7.6 N 19 30 10 16 1010.5 1010.5 0.0
29/06:30am 20.9 16.8 6.1 38 7.4 N 17 26 9 14 1010.7 1010.7 0.0
29/06:00am 21.2 17.0 5.5 36 7.8 N 17 22 9 12 1010.5 1010.5 0.0
29/05:30am 22.5 18.1 5.0 32 8.7 NW 17 26 9 14 1010.0 1010.0 0.0
29/05:00am 22.6 16.9 5.1 32 8.7 NW 24 43 13 23 1008.9 1008.9 0.0
29/04:43am 22.5 16.1 5.4 33 8.5 WNW 28 48 15 26 1008.6 1008.5 0.0
29/04:30am 22.3 17.1 5.3 33 8.5 WNW 22 41 12 22 1008.3 1008.2 0.0
29/04:00am 22.4 17.6 5.4 33 8.5 WNW 20 43 11 23 1008.5 1008.4 0.0
29/03:30am 22.5 18.2 5.4 33 8.5 NW 17 33 9 18 1008.9 1008.9 0.0
29/03:00am 22.8 18.2 5.7 33 8.6 WNW 19 30 10 16 1008.9 1008.9 0.0
29/02:30am 22.7 20.1 6.0 34 8.5 NNW 9 17 5 9 1009.2 1009.2 0.0
29/02:00am 22.6 19.2 6.0 34 8.4 N 13 20 7 11 1009.4 1009.4 0.0
29/01:30am 22.2 18.6 6.8 37 7.9 NNW 15 26 8 14 1009.5 1009.5 0.0
29/01:00am 17.6 14.3 9.5 59 4.3 NNE 17 20 9 11 1009.8 1009.8 0.0
29/12:30am 17.4 15.2 9.3 59 4.2 NNW 11 24 6 13 1010.5 1010.5 0.0
29/12:00am 17.2 15.1 9.6 61 4.0 NNW 11 15 6 8 1011.0 1011.0 0.0
 
Date/Time
EST
Temp
°C
App
Temp
°C
Dew
Point
Rel
Hum
%
Delta-T
°C
Wind Press
QNH
hPa
Press
MSL
hPa
Rain
since 9 am
mm
Dir
 
Spd
km/h
Gust
km/h
Spd
kts
Gust
kts
28/11:30pm 16.5 14.1 9.9 65 3.5 N 13 17 7 9 1011.4 1011.4 0.0
28/11:00pm 17.2 14.8 9.9 62 3.8 N 13 17 7 9 1011.6 1011.6 0.0
28/10:30pm 16.1 15.0 9.8 66 3.3 NNW 6 13 3 7 1011.8 1011.8 0.0
28/10:00pm 17.9 17.0 11.2 65 3.6 N 7 11 4 6 1011.9 1011.9 0.0
28/09:30pm 19.2 18.0 9.4 53 5.2 N 6 11 3 6 1012.0 1012.0 0.0
28/09:00pm 21.1 17.9 10.0 49 6.0 N 17 26 9 14 1012.0 1012.0 0.0
28/08:30pm 20.3 19.1 10.4 53 5.4 N 7 13 4 7 1012.7 1012.7 0.0
28/08:00pm 20.5 18.8 11.2 55 5.1 NNW 11 17 6 9 1012.8 1012.8 0.0
28/07:30pm 18.2 18.3 11.5 65 3.7 N 2 11 1 6 1012.5 1012.5 0.0
28/07:00pm 18.8 18.3 11.9 64 3.8 WNW 6 17 3 9 1012.1 1012.1 0.0
28/06:30pm 19.6 17.2 11.4 59 4.5 N 15 17 8 9 1011.5 1011.5 0.0
28/06:00pm 21.9 20.2 13.5 59 4.9 N 15 20 8 11 1011.1 1011.1 0.0
28/05:30pm 19.5 18.3 16.0 80 2.1 NNE 17 20 9 11 1011.0 1011.0 0.0
28/05:00pm 20.5 17.8 15.5 73 3.0 NNE 24 30 13 16 1011.2 1011.2 0.0
28/04:30pm 20.5 17.1 15.7 74 2.9 NNE 28 35 15 19 1011.3 1011.3 0.0
28/04:00pm 21.2 17.5 15.1 68 3.6 NNE 28 35 15 19 1011.6 1011.6 0.0
28/03:30pm 21.7 18.8 15.1 66 3.9 NE 24 32 13 17 1012.1 1012.1 0.0
28/03:00pm 21.6 19.2 15.4 68 3.7 NE 22 32 12 17 1012.5 1012.5 0.0
28/02:30pm 21.3 18.7 16.0 72 3.2 NE 24 32 13 17 1013.0 1013.0 0.0
28/02:00pm 20.8 17.5 14.9 69 3.5 NE 26 32 14 17 1013.5 1013.5 0.0
28/01:30pm 21.0 17.9 14.4 66 3.9 NE 24 32 13 17 1013.9 1013.9 0.0
28/01:00pm 20.4 16.4 13.1 63 4.2 NE 26 33 14 18 1014.4 1014.4 0.0
28/12:30pm 20.6 17.3 14.0 66 3.8 NE 24 32 13 17 1014.9 1014.9 0.0
28/12:00pm 20.3 17.5 14.2 68 3.5 NE 22 28 12 15 1015.5 1015.5 0.0
28/11:30am 19.8 17.5 14.6 72 3.0 NE 20 26 11 14 1016.1 1016.1 0.0
28/11:00am 18.7 16.0 13.6 72 2.9 NE 20 24 11 13 1016.6 1016.6 0.0

Other Formats:

Comma delimited format used in spreadsheet applications
http://www.bom.gov.au/fwo/IDN60801/IDN60801.95937.axf

JavaScript Object Notation format (JSON) in row-major order
http://www.bom.gov.au/fwo/IDN60801/IDN60801.95937.json